Time;durP1;ratioP1;P1;durP2;ratioP2;P2;SDS_P1;SDS_P2;PMS_P1;PMS_P2;Temp;Humidity;BMP_temperature;BMP_pressure;BME280_temperature;BME280_humidity;BME280_pressure;Samples;Min_cycle;Max_cycle;Signal;HPM_P1;HPM_P2
2022/10/05 00:00:25;;;;;;;76.35;22.50;;;;;;;;;;5050187;28;20401;-62
2022/10/05 00:02:53;;;;;;;89.05;23.30;;;;;;;;;;5049835;28;20037;-62
2022/10/05 00:05:19;;;;;;;104.22;24.52;;;;;;;;;;5050325;28;20041;-64
2022/10/05 00:07:46;;;;;;;115.57;24.13;;;;;;;;;;5054222;28;20072;-65
2022/10/05 00:10:14;;;;;;;73.80;23.25;;;;;;;;;;5052544;28;20049;-65
2022/10/05 00:12:42;;;;;;;73.22;22.92;;;;;;;;;;5052676;28;20056;-64
2022/10/05 00:15:10;;;;;;;91.22;23.80;;;;;;;;;;5050733;28;20072;-67
2022/10/05 00:17:37;;;;;;;83.40;23.80;;;;;;;;;;5050769;28;20033;-66
2022/10/05 00:20:15;;;;;;;80.70;23.23;;;;;;;;;;5051800;28;20101;-65
2022/10/05 00:22:41;;;;;;;81.75;22.27;;;;;;;;;;5051387;28;20045;-64
2022/10/05 00:25:13;;;;;;;101.30;23.50;;;;;;;;;;5051635;28;20413;-65
2022/10/05 00:27:40;;;;;;;93.10;22.90;;;;;;;;;;5049504;28;20120;-64
2022/10/05 00:30:12;;;;;;;71.88;21.00;;;;;;;;;;5048417;28;20108;-66
2022/10/05 00:32:38;;;;;;;89.60;22.95;;;;;;;;;;5045829;28;20037;-66
2022/10/05 00:35:05;;;;;;;78.60;21.27;;;;;;;;;;5051225;28;20041;-66
2022/10/05 00:37:31;;;;;;;75.47;20.30;;;;;;;;;;5050797;28;20053;-66
2022/10/05 00:39:58;;;;;;;82.25;21.08;;;;;;;;;;5048488;28;20665;-66
2022/10/05 00:42:24;;;;;;;70.78;18.98;;;;;;;;;;5046953;28;20045;-62
2022/10/05 00:44:55;;;;;;;99.18;20.52;;;;;;;;;;5050288;28;20489;-65
2022/10/05 00:47:34;;;;;;;84.05;19.73;;;;;;;;;;5038260;28;20052;-66
2022/10/05 00:50:28;;;;;;;70.38;19.67;;;;;;;;;;5047121;28;20079;-66
2022/10/05 00:53:18;;;;;;;110.78;21.55;;;;;;;;;;5046289;28;20045;-65
2022/10/05 00:55:56;;;;;;;106.40;20.90;;;;;;;;;;5046259;28;20080;-65
2022/10/05 00:58:34;;;;;;;81.65;20.13;;;;;;;;;;5049335;28;20417;-66
2022/10/05 14:38:16;;;;;;;41.80;7.50;;;;;;;;;;5117915;23;20056;-75
2022/10/05 14:40:43;;;;;;;53.03;8.00;;;;;;;;;;4931294;29;20047;-74
2022/10/05 14:43:12;;;;;;;46.70;6.85;;;;;;;;;;4930790;29;20044;-75
2022/10/05 14:45:55;;;;;;;34.28;5.78;;;;;;;;;;4932198;29;20052;-74
2022/10/05 14:48:22;;;;;;;42.72;6.90;;;;;;;;;;4932838;29;20036;-74
2022/10/05 14:50:54;;;;;;;37.67;6.55;;;;;;;;;;4932523;29;20792;-77
2022/10/05 14:53:23;;;;;;;345.40;25.98;;;;;;;;;;5492810;23;20026;-77
2022/10/05 14:56:09;;;;;;;51.13;8.40;;;;;;;;;;4946720;28;20043;-74
2022/10/05 14:58:43;;;;;;;71.60;9.55;;;;;;;;;;4966403;28;20051;-81
2022/10/05 15:01:32;;;;;;;71.28;9.57;;;;;;;;;;4950068;28;20092;-64
2022/10/05 15:03:59;;;;;;;23.83;6.07;;;;;;;;;;4935041;29;20047;-63
2022/10/05 15:06:33;;;;;;;61.40;8.63;;;;;;;;;;4951578;28;20035;-65
2022/10/05 15:09:19;;;;;;;46.72;8.25;;;;;;;;;;4934332;29;20043;-64
2022/10/05 15:11:50;;;;;;;92.35;12.00;;;;;;;;;;4934340;29;20046;-64
2022/10/05 15:14:25;;;;;;;90.00;12.85;;;;;;;;;;4959120;28;20098;-64
2022/10/05 15:16:52;;;;;;;66.55;9.88;;;;;;;;;;4951549;28;20134;-64
2022/10/05 15:19:26;;;;;;;143.65;14.30;;;;;;;;;;4951034;28;20399;-62
2022/10/05 15:21:54;;;;;;;;;;;;;;;;;;4951347;28;20051;-62
2022/10/05 15:24:24;;;;;;;68.75;9.52;;;;;;;;;;4934404;29;20046;-64
2022/10/05 15:26:59;;;;;;;58.90;9.10;;;;;;;;;;4951691;28;20057;-65
2022/10/05 15:29:49;;;;;;;77.60;10.05;;;;;;;;;;4951556;28;20122;-66
2022/10/05 15:32:23;;;;;;;56.65;9.00;;;;;;;;;;4949888;28;20043;-63
2022/10/05 15:37:50;;;;;;;76.55;11.40;;;;;;;;;;5303950;23;20512;-73
2022/10/05 15:40:20;;;;;;;49.38;9.75;;;;;;;;;;4932306;29;20107;-69
2022/10/05 15:42:51;;;;;;;38.85;8.02;;;;;;;;;;4932805;29;20086;-70
2022/10/05 15:45:22;;;;;;;94.95;12.20;;;;;;;;;;4919393;29;20126;-74
2022/10/05 15:47:55;;;;;;;72.38;10.70;;;;;;;;;;4929350;29;20048;-76
2022/10/05 15:50:24;;;;;;;109.43;13.68;;;;;;;;;;4924742;29;20123;-75
2022/10/05 15:53:10;;;;;;;38.60;8.98;;;;;;;;;;4926972;29;20043;-80
2022/10/05 15:55:48;;;;;;;60.80;9.80;;;;;;;;;;4917697;29;20116;-71
2022/10/05 15:58:38;;;;;;;30.02;7.70;;;;;;;;;;4918006;29;20083;-80
2022/10/05 16:01:08;;;;;;;70.10;11.27;;;;;;;;;;4932364;29;20523;-73
2022/10/05 16:03:36;;;;;;;54.45;9.90;;;;;;;;;;4936994;29;20054;-75
2022/10/05 16:09:11;;;;;;;52.00;9.07;;;;;;;;;;4935038;29;20047;-73
2022/10/05 16:11:47;;;;;;;60.90;11.27;;;;;;;;;;4924779;29;20044;-82
2022/10/05 16:14:32;;;;;;;43.97;10.75;;;;;;;;;;4925421;29;20115;-77
2022/10/05 16:16:58;;;;;;;45.25;9.65;;;;;;;;;;4921614;29;20054;-78
2022/10/05 16:19:44;;;;;;;64.78;13.63;;;;;;;;;;4920475;29;20570;-78
2022/10/05 16:22:23;;;;;;;78.07;16.25;;;;;;;;;;4919335;29;20507;-78
2022/10/05 16:25:01;;;;;;;104.57;32.20;;;;;;;;;;4919069;29;20513;-79
2022/10/05 16:27:42;;;;;;;55.33;14.48;;;;;;;;;;4917987;29;20032;-77
2022/10/05 16:30:10;;;;;;;39.60;11.07;;;;;;;;;;4920762;29;20162;-79
2022/10/05 16:32:49;;;;;;;55.05;12.02;;;;;;;;;;4920091;29;20071;-78
2022/10/05 16:35:23;;;;;;;35.13;10.85;;;;;;;;;;4920556;29;20036;-78
2022/10/05 16:37:52;;;;;;;51.80;10.52;;;;;;;;;;4920311;29;20135;-78
2022/10/05 16:40:28;;;;;;;51.08;10.27;;;;;;;;;;4920837;29;20040;-79
2022/10/05 16:43:04;;;;;;;72.60;13.27;;;;;;;;;;4917869;29;20052;-78
2022/10/05 16:45:44;;;;;;;64.43;11.77;;;;;;;;;;4918275;29;20408;-80
2022/10/05 16:48:16;;;;;;;43.33;10.90;;;;;;;;;;4920084;29;20047;-78
2022/10/05 16:50:55;;;;;;;29.70;9.07;;;;;;;;;;4920538;29;20063;-77
2022/10/05 16:53:48;;;;;;;42.05;9.93;;;;;;;;;;4920209;29;20452;-78
2022/10/05 16:56:16;;;;;;;27.17;10.10;;;;;;;;;;4918043;29;20478;-78
2022/10/05 16:59:03;;;;;;;41.97;10.80;;;;;;;;;;4919385;29;20045;-78
2022/10/05 17:01:40;;;;;;;39.90;10.52;;;;;;;;;;4922171;29;20468;-79
2022/10/05 17:04:15;;;;;;;47.80;11.27;;;;;;;;;;4934737;29;20044;-78
2022/10/05 17:06:56;;;;;;;31.75;8.90;;;;;;;;;;4935909;29;20043;-77
2022/10/05 17:09:35;;;;;;;45.92;10.38;;;;;;;;;;4933384;29;20670;-77
2022/10/05 17:12:17;;;;;;;49.80;9.75;;;;;;;;;;4920186;29;20074;-79
2022/10/05 17:14:44;;;;;;;58.17;10.07;;;;;;;;;;4919854;29;20127;-81
2022/10/05 17:17:14;;;;;;;31.95;8.80;;;;;;;;;;4919830;29;20048;-77
2022/10/05 17:20:07;;;;;;;37.38;9.05;;;;;;;;;;4919106;29;20423;-78
2022/10/05 17:22:46;;;;;;;39.15;8.63;;;;;;;;;;4861541;29;20082;-78
2022/10/05 17:25:23;;;;;;;61.90;10.27;;;;;;;;;;4860989;29;20499;-78
2022/10/05 17:27:51;;;;;;;48.33;10.55;;;;;;;;;;4876199;29;20048;-78
2022/10/05 17:30:18;;;;;;;45.30;8.88;;;;;;;;;;4861607;29;20133;-78
2022/10/05 17:32:57;;;;;;;57.95;10.10;;;;;;;;;;4860596;29;20440;-80
2022/10/05 17:35:42;;;;;;;66.80;10.30;;;;;;;;;;4860041;29;20057;-80
2022/10/05 17:38:13;;;;;;;40.13;9.65;;;;;;;;;;4845852;29;20062;-79
2022/10/05 17:41:00;;;;;;;34.35;8.45;;;;;;;;;;4842438;29;20058;-79
2022/10/05 17:43:29;;;;;;;50.58;9.93;;;;;;;;;;4841922;29;20098;-80
2022/10/05 17:45:56;;;;;;;51.97;10.63;;;;;;;;;;4839394;29;20514;-79
2022/10/05 17:48:40;;;;;;;58.17;10.75;;;;;;;;;;4840429;29;20133;-79
2022/10/05 17:57:04;;;;;;;42.90;9.43;;;;;;;;;;4853854;29;20133;-78
2022/10/05 17:59:44;;;;;;;39.03;8.48;;;;;;;;;;4885380;29;20139;-79
2022/10/05 18:02:20;;;;;;;31.83;8.20;;;;;;;;;;4912047;29;20143;-78
2022/10/05 18:05:14;;;;;;;35.30;8.73;;;;;;;;;;4913973;29;20386;-78
2022/10/05 18:07:46;;;;;;;37.75;8.82;;;;;;;;;;4911478;29;20653;-76
2022/10/05 18:10:27;;;;;;;38.35;9.55;;;;;;;;;;4912769;29;20480;-77
2022/10/05 18:13:00;;;;;;;75.93;12.48;;;;;;;;;;4910787;29;20054;-77
2022/10/05 18:15:26;;;;;;;45.60;10.13;;;;;;;;;;4908921;29;20091;-77
2022/10/05 18:17:56;;;;;;;52.17;10.23;;;;;;;;;;4910520;29;20739;-77
2022/10/05 18:20:22;;;;;;;41.17;10.77;;;;;;;;;;4905775;29;20070;-77
2022/10/05 18:22:59;;;;;;;48.15;11.52;;;;;;;;;;4898850;29;20076;-78
2022/10/05 18:25:47;;;;;;;53.97;12.02;;;;;;;;;;4907962;29;20054;-78
2022/10/05 18:28:24;;;;;;;72.53;12.90;;;;;;;;;;4898406;29;20523;-77
2022/10/05 18:31:09;;;;;;;89.60;14.65;;;;;;;;;;4896951;29;20143;-77
2022/10/05 18:33:45;;;;;;;93.50;14.73;;;;;;;;;;4894397;29;20048;-77
2022/10/05 18:36:12;;;;;;;72.22;13.82;;;;;;;;;;4903785;29;20491;-78
2022/10/05 18:38:42;;;;;;;75.40;13.65;;;;;;;;;;4908272;29;20040;-78
2022/10/05 18:41:30;;;;;;;48.47;12.32;;;;;;;;;;4912276;29;20067;-71
2022/10/05 18:43:56;;;;;;;80.60;13.45;;;;;;;;;;4899658;29;20070;-78
2022/10/05 18:46:23;;;;;;;41.95;11.50;;;;;;;;;;4894725;29;20663;-80
2022/10/05 18:49:05;;;;;;;80.32;13.48;;;;;;;;;;4912713;29;20568;-77
2022/10/05 18:51:35;;;;;;;69.88;13.48;;;;;;;;;;4911427;29;20083;-79
2022/10/05 18:54:17;;;;;;;38.25;10.52;;;;;;;;;;4913099;29;20052;-79
2022/10/05 18:56:50;;;;;;;70.32;13.18;;;;;;;;;;4912723;29;20123;-80
2022/10/05 18:59:35;;;;;;;72.85;12.75;;;;;;;;;;4912125;29;20043;-71
2022/10/05 19:02:21;;;;;;;58.72;13.07;;;;;;;;;;4908697;29;20056;-80
2022/10/05 19:04:48;;;;;;;64.95;13.65;;;;;;;;;;4902546;29;20044;-75
2022/10/05 19:07:35;;;;;;;62.97;14.23;;;;;;;;;;4913173;29;20373;-75
2022/10/05 19:10:02;;;;;;;55.28;13.77;;;;;;;;;;4903738;29;20191;-71
2022/10/05 19:12:31;;;;;;;62.78;15.43;;;;;;;;;;4912925;29;20044;-70
2022/10/05 19:15:15;;;;;;;63.10;17.85;;;;;;;;;;4918788;29;20692;-72
2022/10/05 19:17:45;;;;;;;70.32;17.70;;;;;;;;;;4919149;29;20052;-88
2022/10/05 19:20:21;;;;;;;59.58;16.17;;;;;;;;;;4913506;29;20040;-77
2022/10/05 19:22:47;;;;;;;62.70;17.63;;;;;;;;;;4923425;29;20040;-74
2022/10/05 19:25:27;;;;;;;68.32;16.75;;;;;;;;;;4913173;29;20060;-72
2022/10/05 19:28:14;;;;;;;70.78;16.08;;;;;;;;;;4912475;29;20683;-71
2022/10/05 19:30:47;;;;;;;50.20;14.65;;;;;;;;;;4896609;29;20054;-78
2022/10/05 19:33:23;;;;;;;66.88;16.08;;;;;;;;;;4912384;29;20076;-72
2022/10/05 19:35:49;;;;;;;89.68;16.65;;;;;;;;;;4913155;29;20088;-76
2022/10/05 19:38:22;;;;;;;67.15;14.38;;;;;;;;;;4920363;29;20413;-71
2022/10/05 19:40:51;;;;;;;106.15;18.02;;;;;;;;;;4921274;29;20048;-78
2022/10/05 19:43:36;;;;;;;68.75;14.63;;;;;;;;;;4920100;29;20050;-77
2022/10/05 19:46:21;;;;;;;96.60;15.80;;;;;;;;;;4918415;29;20063;-80
2022/10/05 19:48:50;;;;;;;70.85;15.57;;;;;;;;;;4920042;29;20052;-79
2022/10/05 19:51:24;;;;;;;88.07;15.80;;;;;;;;;;4919662;29;20072;-80
2022/10/05 19:53:54;;;;;;;57.53;14.43;;;;;;;;;;4931672;29;20131;-81
2022/10/05 19:56:24;;;;;;;50.08;12.75;;;;;;;;;;4934066;29;20047;-84
2022/10/05 19:58:55;;;;;;;62.13;14.80;;;;;;;;;;4926690;29;20047;-77
2022/10/05 20:01:23;;;;;;;40.50;13.38;;;;;;;;;;4936217;29;20035;-80
2022/10/05 20:03:50;;;;;;;71.75;14.63;;;;;;;;;;4939048;29;20050;-79
2022/10/05 20:06:18;;;;;;;63.80;14.05;;;;;;;;;;4937709;29;20050;-71
2022/10/05 20:08:45;;;;;;;48.22;12.20;;;;;;;;;;4924565;29;20047;-74
2022/10/05 20:11:12;;;;;;;59.92;14.52;;;;;;;;;;4927940;29;20039;-76
2022/10/05 20:13:43;;;;;;;55.10;13.77;;;;;;;;;;4938310;29;20690;-80
2022/10/05 20:21:58;;;;;;;56.08;13.25;;;;;;;;;;4920971;29;20855;-82
2022/10/05 20:24:29;;;;;;;54.25;12.70;;;;;;;;;;4944465;29;20086;-82
2022/10/05 20:27:05;;;;;;;48.72;11.48;;;;;;;;;;4956515;29;20079;-82
2022/10/05 20:29:32;;;;;;;44.03;12.35;;;;;;;;;;4949658;29;20048;-82
2022/10/05 20:31:59;;;;;;;36.83;11.85;;;;;;;;;;4942592;29;20040;-82
2022/10/05 20:34:25;;;;;;;86.25;15.30;;;;;;;;;;4938974;29;20126;-80
2022/10/05 20:36:52;;;;;;;77.00;14.75;;;;;;;;;;4921103;29;20131;-84
2022/10/05 20:39:20;;;;;;;37.83;12.07;;;;;;;;;;4937474;29;20040;-72
2022/10/05 20:41:46;;;;;;;60.47;13.02;;;;;;;;;;4923102;29;20497;-76
2022/10/05 20:44:13;;;;;;;36.08;11.95;;;;;;;;;;4919593;29;20052;-77
2022/10/05 20:46:40;;;;;;;52.13;12.93;;;;;;;;;;4919698;29;20045;-77
2022/10/05 20:49:11;;;;;;;67.63;13.15;;;;;;;;;;4917773;29;20099;-78
2022/10/05 20:51:38;;;;;;;51.00;12.35;;;;;;;;;;4917177;29;20128;-78
2022/10/05 20:54:06;;;;;;;49.35;12.15;;;;;;;;;;4919744;29;20547;-78
2022/10/05 20:56:32;;;;;;;48.80;11.55;;;;;;;;;;4919590;29;20401;-78
2022/10/05 20:58:59;;;;;;;50.70;11.98;;;;;;;;;;4920666;29;20052;-79
2022/10/05 21:01:26;;;;;;;43.65;11.27;;;;;;;;;;4919716;29;20048;-78
2022/10/05 21:03:53;;;;;;;66.47;12.88;;;;;;;;;;4916577;29;20044;-79
2022/10/05 21:06:20;;;;;;;51.05;11.70;;;;;;;;;;4931342;29;20382;-79
2022/10/05 21:08:49;;;;;;;54.05;12.73;;;;;;;;;;4920000;29;20044;-79
2022/10/05 21:11:16;;;;;;;67.25;13.40;;;;;;;;;;4919144;29;20046;-78
2022/10/05 21:13:45;;;;;;;66.80;13.30;;;;;;;;;;4902024;29;20044;-78
2022/10/05 21:16:14;;;;;;;58.60;12.68;;;;;;;;;;4918967;29;20048;-79
2022/10/05 21:18:41;;;;;;;66.97;13.35;;;;;;;;;;4916624;29;20048;-79
2022/10/05 21:21:08;;;;;;;45.80;11.60;;;;;;;;;;4919564;29;20047;-76
2022/10/05 21:23:34;;;;;;;49.85;12.35;;;;;;;;;;4941653;29;20058;-71
2022/10/05 21:26:01;;;;;;;62.22;13.07;;;;;;;;;;4933858;29;20039;-72
2022/10/05 21:28:27;;;;;;;34.67;11.13;;;;;;;;;;4932806;29;20048;-71
2022/10/05 21:30:54;;;;;;;67.95;13.45;;;;;;;;;;4916267;29;20052;-71
2022/10/05 21:33:21;;;;;;;55.38;13.13;;;;;;;;;;4918306;29;20044;-71
2022/10/05 21:35:47;;;;;;;41.90;12.63;;;;;;;;;;4919572;29;20058;-72
2022/10/05 21:38:14;;;;;;;58.13;13.68;;;;;;;;;;4905475;29;20043;-74
2022/10/05 21:40:42;;;;;;;60.53;15.82;;;;;;;;;;4933835;29;20041;-76
2022/10/05 21:43:09;;;;;;;47.28;13.68;;;;;;;;;;4918798;29;20055;-76
2022/10/05 21:45:36;;;;;;;46.88;13.60;;;;;;;;;;4934763;29;20515;-73
2022/10/05 21:48:03;;;;;;;63.03;16.27;;;;;;;;;;4924145;29;20052;-77
2022/10/05 21:50:31;;;;;;;45.85;15.43;;;;;;;;;;4923253;29;20036;-73
2022/10/05 21:52:58;;;;;;;54.80;16.33;;;;;;;;;;4922967;29;20050;-72
2022/10/05 21:55:25;;;;;;;65.13;16.10;;;;;;;;;;4947028;29;20052;-71
2022/10/05 21:57:53;;;;;;;68.13;16.95;;;;;;;;;;4933586;29;20567;-72
2022/10/05 22:00:20;;;;;;;43.38;15.93;;;;;;;;;;4932896;29;20040;-71
2022/10/05 22:02:47;;;;;;;79.40;18.60;;;;;;;;;;4926333;29;20552;-74
2022/10/05 22:05:13;;;;;;;46.35;16.50;;;;;;;;;;4925943;29;20039;-80
2022/10/05 22:07:40;;;;;;;49.95;19.55;;;;;;;;;;4953256;29;20039;-80
2022/10/05 22:10:06;;;;;;;87.22;20.25;;;;;;;;;;4936450;29;20056;-77
2022/10/05 22:12:33;;;;;;;39.72;16.85;;;;;;;;;;4920285;29;20052;-75
2022/10/05 22:15:00;;;;;;;71.90;18.63;;;;;;;;;;4922434;29;20044;-74
2022/10/05 22:17:28;;;;;;;61.65;17.60;;;;;;;;;;4922339;29;20040;-78
2022/10/05 22:19:55;;;;;;;56.15;18.65;;;;;;;;;;4922718;29;20048;-73
2022/10/05 22:22:22;;;;;;;72.35;20.25;;;;;;;;;;4918785;29;20047;-73
2022/10/05 22:24:48;;;;;;;88.82;21.70;;;;;;;;;;4918051;29;20104;-74
2022/10/05 22:27:15;;;;;;;58.17;20.02;;;;;;;;;;4922126;29;20051;-74
2022/10/05 22:29:42;;;;;;;67.05;20.65;;;;;;;;;;4922188;29;20040;-79
2022/10/05 22:32:08;;;;;;;86.15;22.17;;;;;;;;;;4922106;29;20039;-79
2022/10/05 22:34:35;;;;;;;64.50;21.25;;;;;;;;;;4920039;29;20055;-79
2022/10/05 22:37:02;;;;;;;76.60;20.83;;;;;;;;;;4933707;29;20087;-73
2022/10/05 22:39:28;;;;;;;65.70;19.45;;;;;;;;;;4920695;29;20044;-71
2022/10/05 22:41:55;;;;;;;64.75;20.33;;;;;;;;;;4921732;29;20040;-72
2022/10/05 22:44:21;;;;;;;63.15;20.70;;;;;;;;;;4926239;29;20032;-73
2022/10/05 22:46:48;;;;;;;62.50;19.95;;;;;;;;;;4932853;29;20575;-73
2022/10/05 22:49:15;;;;;;;132.55;25.52;;;;;;;;;;4931635;29;20939;-74
2022/10/05 22:51:41;;;;;;;74.70;22.38;;;;;;;;;;4914475;29;20055;-75
2022/10/05 22:54:07;;;;;;;68.13;21.70;;;;;;;;;;4932066;29;20040;-75
2022/10/05 22:56:34;;;;;;;80.80;22.23;;;;;;;;;;4926787;29;20123;-75
2022/10/05 22:59:00;;;;;;;53.42;20.25;;;;;;;;;;4921533;29;20044;-73
2022/10/05 23:01:27;;;;;;;46.08;19.10;;;;;;;;;;4918735;29;20044;-73
2022/10/05 23:03:56;;;;;;;77.35;20.45;;;;;;;;;;4917277;29;20048;-73
2022/10/05 23:06:25;;;;;;;77.68;20.42;;;;;;;;;;4932442;29;20040;-75
2022/10/05 23:08:54;;;;;;;46.75;18.63;;;;;;;;;;4934714;29;20048;-73
2022/10/05 23:11:25;;;;;;;64.25;21.50;;;;;;;;;;4931181;29;20463;-80
2022/10/05 23:13:52;;;;;;;47.72;19.38;;;;;;;;;;4922822;29;20039;-79
2022/10/05 23:16:20;;;;;;;64.28;20.63;;;;;;;;;;4917490;29;20043;-76
2022/10/05 23:18:48;;;;;;;72.18;18.77;;;;;;;;;;4929597;29;20054;-79
2022/10/05 23:21:14;;;;;;;50.15;18.05;;;;;;;;;;4923791;29;20040;-80
2022/10/05 23:23:42;;;;;;;72.25;19.45;;;;;;;;;;4933615;29;20071;-80
2022/10/05 23:26:10;;;;;;;56.42;18.88;;;;;;;;;;4934315;29;20493;-73
2022/10/05 23:28:37;;;;;;;65.82;19.67;;;;;;;;;;4919282;29;20049;-74
2022/10/05 23:31:05;;;;;;;82.70;19.98;;;;;;;;;;4916798;29;20040;-75
2022/10/05 23:33:32;;;;;;;50.08;17.92;;;;;;;;;;4919958;29;20058;-77
2022/10/05 23:35:59;;;;;;;43.25;17.95;;;;;;;;;;4921346;29;20048;-79
2022/10/05 23:38:26;;;;;;;61.25;18.83;;;;;;;;;;4921431;29;20064;-76
2022/10/05 23:40:53;;;;;;;65.72;19.55;;;;;;;;;;4921172;29;20043;-73
2022/10/05 23:43:20;;;;;;;54.45;18.30;;;;;;;;;;4917430;29;20484;-77
2022/10/05 23:45:47;;;;;;;70.72;19.10;;;;;;;;;;4913913;29;20510;-74
2022/10/05 23:48:13;;;;;;;47.53;18.45;;;;;;;;;;4921443;29;20052;-73
2022/10/05 23:50:41;;;;;;;65.45;19.25;;;;;;;;;;4927822;29;20039;-77
2022/10/05 23:53:07;;;;;;;72.55;20.52;;;;;;;;;;4929713;29;20043;-76
2022/10/05 23:55:34;;;;;;;69.57;19.55;;;;;;;;;;4918864;29;20055;-78
2022/10/05 23:58:00;;;;;;;67.47;21.08;;;;;;;;;;4916718;29;20622;-78
